sensor_id;sensor_type;location;lat;lon;timestamp;pressure;altitude;pressure_sealevel;temperature;humidity
9415;BME280;4746;35.664;139.738;2023-04-26T00:02:23;99715.06;;;20.69;61.30
9415;BME280;4746;35.664;139.738;2023-04-26T00:04:56;99710.09;;;20.84;60.59
9415;BME280;4746;35.664;139.738;2023-04-26T00:07:27;99701.38;;;21.05;60.89
9415;BME280;4746;35.664;139.738;2023-04-26T00:09:56;99696.22;;;21.42;60.58
9415;BME280;4746;35.664;139.738;2023-04-26T00:12:24;99689.22;;;21.80;60.05
9415;BME280;4746;35.664;139.738;2023-04-26T00:14:51;99701.66;;;21.94;59.21
9415;BME280;4746;35.664;139.738;2023-04-26T00:17:19;99704.66;;;21.85;59.36
9415;BME280;4746;35.664;139.738;2023-04-26T00:19:46;99697.03;;;21.80;59.16
9415;BME280;4746;35.664;139.738;2023-04-26T00:22:14;99689.22;;;21.80;59.23
9415;BME280;4746;35.664;139.738;2023-04-26T00:24:42;99680.66;;;21.78;58.87
9415;BME280;4746;35.664;139.738;2023-04-26T00:27:10;99672.19;;;21.73;59.31
9415;BME280;4746;35.664;139.738;2023-04-26T00:29:37;99657.38;;;21.74;59.35
9415;BME280;4746;35.664;139.738;2023-04-26T00:32:05;99642.56;;;21.74;59.61
9415;BME280;4746;35.664;139.738;2023-04-26T00:34:37;99642.28;;;21.80;59.28
9415;BME280;4746;35.664;139.738;2023-04-26T00:37:05;99642.44;;;21.77;59.67
9415;BME280;4746;35.664;139.738;2023-04-26T00:39:32;99629.50;;;21.74;59.60
9415;BME280;4746;35.664;139.738;2023-04-26T00:42:00;99632.41;;;21.68;60.03
9415;BME280;4746;35.664;139.738;2023-04-26T00:44:27;99609.38;;;21.60;60.44
9415;BME280;4746;35.664;139.738;2023-04-26T00:46:55;99594.53;;;21.62;60.57
9415;BME280;4746;35.664;139.738;2023-04-26T00:49:24;99593.44;;;21.66;60.66
9415;BME280;4746;35.664;139.738;2023-04-26T00:51:52;99591.75;;;21.65;60.99
9415;BME280;4746;35.664;139.738;2023-04-26T00:54:21;99599.59;;;21.65;60.78
9415;BME280;4746;35.664;139.738;2023-04-26T00:56:48;99601.34;;;21.64;61.32
9415;BME280;4746;35.664;139.738;2023-04-26T00:59:22;99598.22;;;21.74;61.12
9415;BME280;4746;35.664;139.738;2023-04-26T01:01:50;99597.09;;;21.80;60.75
9415;BME280;4746;35.664;139.738;2023-04-26T01:04:17;99592.16;;;21.74;61.42
9415;BME280;4746;35.664;139.738;2023-04-26T01:06:46;99586.75;;;21.78;61.31
9415;BME280;4746;35.664;139.738;2023-04-26T01:09:13;99583.13;;;21.81;61.09
9415;BME280;4746;35.664;139.738;2023-04-26T01:11:43;99578.91;;;21.78;61.44
9415;BME280;4746;35.664;139.738;2023-04-26T01:14:11;99571.63;;;21.85;61.01
9415;BME280;4746;35.664;139.738;2023-04-26T01:16:39;99576.75;;;21.86;61.63
9415;BME280;4746;35.664;139.738;2023-04-26T01:19:11;99575.72;;;21.90;61.60
9415;BME280;4746;35.664;139.738;2023-04-26T01:21:42;99571.25;;;21.92;62.00
9415;BME280;4746;35.664;139.738;2023-04-26T01:24:13;99555.75;;;21.89;62.02
9415;BME280;4746;35.664;139.738;2023-04-26T01:26:41;99568.19;;;21.84;62.31
9415;BME280;4746;35.664;139.738;2023-04-26T01:29:17;99556.97;;;21.82;62.26
9415;BME280;4746;35.664;139.738;2023-04-26T01:31:45;99531.09;;;21.78;63.09
9415;BME280;4746;35.664;139.738;2023-04-26T01:34:13;99514.63;;;21.77;63.47
9415;BME280;4746;35.664;139.738;2023-04-26T01:36:41;99495.28;;;21.81;63.47
9415;BME280;4746;35.664;139.738;2023-04-26T01:39:08;99493.53;;;21.82;63.84
9415;BME280;4746;35.664;139.738;2023-04-26T01:41:36;99491.75;;;21.82;63.72
9415;BME280;4746;35.664;139.738;2023-04-26T01:44:03;99483.72;;;21.87;64.01
9415;BME280;4746;35.664;139.738;2023-04-26T01:46:31;99476.50;;;21.92;64.03
9415;BME280;4746;35.664;139.738;2023-04-26T01:48:59;99496.16;;;21.99;64.53
9415;BME280;4746;35.664;139.738;2023-04-26T01:51:26;99466.44;;;22.01;64.37
9415;BME280;4746;35.664;139.738;2023-04-26T01:53:54;99453.00;;;22.09;64.66
9415;BME280;4746;35.664;139.738;2023-04-26T01:56:24;99464.03;;;22.14;64.40
9415;BME280;4746;35.664;139.738;2023-04-26T01:58:51;99443.06;;;22.15;64.41
9415;BME280;4746;35.664;139.738;2023-04-26T02:01:21;99420.22;;;22.20;64.50
9415;BME280;4746;35.664;139.738;2023-04-26T02:03:48;99426.78;;;22.27;64.31
9415;BME280;4746;35.664;139.738;2023-04-26T02:06:16;99445.84;;;22.29;64.90
9415;BME280;4746;35.664;139.738;2023-04-26T02:08:44;99427.50;;;22.31;64.66
9415;BME280;4746;35.664;139.738;2023-04-26T02:11:12;99423.88;;;22.33;64.41
9415;BME280;4746;35.664;139.738;2023-04-26T02:13:39;99412.38;;;22.37;64.65
9415;BME280;4746;35.664;139.738;2023-04-26T02:16:07;99414.56;;;22.44;64.67
9415;BME280;4746;35.664;139.738;2023-04-26T02:18:34;99407.00;;;22.55;64.83
9415;BME280;4746;35.664;139.738;2023-04-26T02:21:06;99402.13;;;22.65;64.40
9415;BME280;4746;35.664;139.738;2023-04-26T02:23:34;99382.41;;;22.75;64.00
9415;BME280;4746;35.664;139.738;2023-04-26T02:26:01;99361.25;;;22.79;64.06
9415;BME280;4746;35.664;139.738;2023-04-26T02:28:29;99355.94;;;22.81;64.00
9415;BME280;4746;35.664;139.738;2023-04-26T02:30:57;99351.28;;;22.86;63.91
9415;BME280;4746;35.664;139.738;2023-04-26T02:33:24;99353.41;;;22.95;63.76
9415;BME280;4746;35.664;139.738;2023-04-26T02:35:52;99345.13;;;22.87;64.45
9415;BME280;4746;35.664;139.738;2023-04-26T02:38:19;99337.88;;;22.92;64.14
9415;BME280;4746;35.664;139.738;2023-04-26T02:40:48;99331.63;;;22.94;63.87
9415;BME280;4746;35.664;139.738;2023-04-26T02:43:15;99347.81;;;23.01;63.67
9415;BME280;4746;35.664;139.738;2023-04-26T02:45:43;99317.66;;;23.10;64.15
9415;BME280;4746;35.664;139.738;2023-04-26T02:48:10;99318.31;;;23.14;64.22
9415;BME280;4746;35.664;139.738;2023-04-26T02:50:38;99321.19;;;23.09;64.10
9415;BME280;4746;35.664;139.738;2023-04-26T02:53:05;99310.00;;;23.08;64.65
9415;BME280;4746;35.664;139.738;2023-04-26T02:55:33;99291.16;;;23.16;64.09
9415;BME280;4746;35.664;139.738;2023-04-26T02:58:00;99300.28;;;23.09;64.30
9415;BME280;4746;35.664;139.738;2023-04-26T03:00:28;99298.22;;;23.14;64.24
9415;BME280;4746;35.664;139.738;2023-04-26T03:02:55;99260.44;;;23.20;64.50
9415;BME280;4746;35.664;139.738;2023-04-26T03:05:23;99277.16;;;23.17;64.46
9415;BME280;4746;35.664;139.738;2023-04-26T03:07:53;99273.78;;;23.15;64.35
9415;BME280;4746;35.664;139.738;2023-04-26T03:10:20;99260.44;;;23.20;64.24
9415;BME280;4746;35.664;139.738;2023-04-26T03:12:48;99251.19;;;23.14;64.65
9415;BME280;4746;35.664;139.738;2023-04-26T03:15:15;99223.38;;;23.13;64.82
9415;BME280;4746;35.664;139.738;2023-04-26T03:17:43;99248.66;;;23.13;64.51
9415;BME280;4746;35.664;139.738;2023-04-26T03:20:11;99232.81;;;23.16;64.76
9415;BME280;4746;35.664;139.738;2023-04-26T03:22:39;99248.88;;;23.24;64.57
9415;BME280;4746;35.664;139.738;2023-04-26T03:25:07;99247.13;;;23.24;64.88
9415;BME280;4746;35.664;139.738;2023-04-26T03:27:35;99239.84;;;23.29;64.82
9415;BME280;4746;35.664;139.738;2023-04-26T03:30:03;99234.41;;;23.32;64.62
9415;BME280;4746;35.664;139.738;2023-04-26T03:32:31;99197.81;;;23.32;64.58
9415;BME280;4746;35.664;139.738;2023-04-26T03:34:59;99218.34;;;23.24;65.12
9415;BME280;4746;35.664;139.738;2023-04-26T03:37:27;99216.69;;;23.23;65.38
9415;BME280;4746;35.664;139.738;2023-04-26T03:39:54;99215.81;;;23.23;65.17
9415;BME280;4746;35.664;139.738;2023-04-26T03:42:22;99207.16;;;23.22;65.47
9415;BME280;4746;35.664;139.738;2023-04-26T03:44:49;99201.75;;;23.25;65.21
9415;BME280;4746;35.664;139.738;2023-04-26T03:47:17;99192.94;;;23.26;65.36
9415;BME280;4746;35.664;139.738;2023-04-26T03:49:44;99180.47;;;23.31;65.70
9415;BME280;4746;35.664;139.738;2023-04-26T03:52:12;99189.22;;;23.30;65.36
9415;BME280;4746;35.664;139.738;2023-04-26T03:54:39;99171.66;;;23.32;65.36
9415;BME280;4746;35.664;139.738;2023-04-26T03:57:07;99148.44;;;23.28;66.03
9415;BME280;4746;35.664;139.738;2023-04-26T03:59:34;99174.84;;;23.23;66.47
9415;BME280;4746;35.664;139.738;2023-04-26T04:02:04;99153.94;;;23.23;66.28
9415;BME280;4746;35.664;139.738;2023-04-26T04:04:32;99149.47;;;23.25;66.24
9415;BME280;4746;35.664;139.738;2023-04-26T04:07:00;99141.31;;;23.30;66.49
9415;BME280;4746;35.664;139.738;2023-04-26T04:09:28;99123.66;;;23.33;65.95
9415;BME280;4746;35.664;139.738;2023-04-26T04:11:55;99124.97;;;23.40;66.31
9415;BME280;4746;35.664;139.738;2023-04-26T04:14:23;99104.88;;;23.41;66.35
9415;BME280;4746;35.664;139.738;2023-04-26T04:16:50;99109.84;;;23.45;66.20
9415;BME280;4746;35.664;139.738;2023-04-26T04:19:18;99092.06;;;23.50;66.21
9415;BME280;4746;35.664;139.738;2023-04-26T04:21:46;99088.34;;;23.54;66.43
9415;BME280;4746;35.664;139.738;2023-04-26T04:24:13;99070.69;;;23.58;66.44
9415;BME280;4746;35.664;139.738;2023-04-26T04:26:40;99069.84;;;23.57;66.55
9415;BME280;4746;35.664;139.738;2023-04-26T04:29:08;99050.38;;;23.61;66.69
9415;BME280;4746;35.664;139.738;2023-04-26T04:31:36;99041.59;;;23.62;66.39
9415;BME280;4746;35.664;139.738;2023-04-26T04:34:05;99026.84;;;23.61;66.36
9415;BME280;4746;35.664;139.738;2023-04-26T04:36:34;99007.41;;;23.65;67.00
9415;BME280;4746;35.664;139.738;2023-04-26T04:39:01;98989.75;;;23.69;66.36
9415;BME280;4746;35.664;139.738;2023-04-26T04:41:29;98987.13;;;23.69;66.74
9415;BME280;4746;35.664;139.738;2023-04-26T04:43:58;98983.78;;;23.67;66.83
9415;BME280;4746;35.664;139.738;2023-04-26T04:46:26;98959.59;;;23.63;66.88
9415;BME280;4746;35.664;139.738;2023-04-26T04:48:53;98952.88;;;23.59;67.42
9415;BME280;4746;35.664;139.738;2023-04-26T04:51:21;98938.25;;;23.57;67.02
9415;BME280;4746;35.664;139.738;2023-04-26T04:53:48;98938.31;;;23.55;67.16
9415;BME280;4746;35.664;139.738;2023-04-26T04:56:16;98955.91;;;23.53;67.53
9415;BME280;4746;35.664;139.738;2023-04-26T04:58:45;98949.94;;;23.51;67.76
9415;BME280;4746;35.664;139.738;2023-04-26T05:01:13;98922.84;;;23.52;68.00
9415;BME280;4746;35.664;139.738;2023-04-26T05:03:41;98939.28;;;23.54;68.00
9415;BME280;4746;35.664;139.738;2023-04-26T05:06:08;98916.56;;;23.55;68.08
9415;BME280;4746;35.664;139.738;2023-04-26T05:08:36;98906.94;;;23.55;68.28
9415;BME280;4746;35.664;139.738;2023-04-26T05:11:03;98895.75;;;23.53;68.25
9415;BME280;4746;35.664;139.738;2023-04-26T05:13:30;98875.53;;;23.55;68.28
9415;BME280;4746;35.664;139.738;2023-04-26T05:15:58;98896.28;;;23.58;68.28
9415;BME280;4746;35.664;139.738;2023-04-26T05:18:25;98907.03;;;23.54;68.34
9415;BME280;4746;35.664;139.738;2023-04-26T05:20:53;98856.53;;;23.53;68.44
9415;BME280;4746;35.664;139.738;2023-04-26T05:23:20;98921.78;;;23.55;68.92
9415;BME280;4746;35.664;139.738;2023-04-26T05:25:48;98898.38;;;23.53;68.81
9415;BME280;4746;35.664;139.738;2023-04-26T05:28:16;98872.00;;;23.56;69.32
9415;BME280;4746;35.664;139.738;2023-04-26T05:30:45;98875.06;;;23.63;69.26
9415;BME280;4746;35.664;139.738;2023-04-26T05:33:15;98879.34;;;23.64;68.85
9415;BME280;4746;35.664;139.738;2023-04-26T05:35:42;98813.84;;;23.65;69.10
9415;BME280;4746;35.664;139.738;2023-04-26T05:38:10;98850.25;;;23.68;69.46
9415;BME280;4746;35.664;139.738;2023-04-26T05:40:37;98826.03;;;23.79;68.85
9415;BME280;4746;35.664;139.738;2023-04-26T05:43:05;98829.03;;;23.85;69.00
9415;BME280;4746;35.664;139.738;2023-04-26T05:45:32;98801.94;;;23.86;69.01
9415;BME280;4746;35.664;139.738;2023-04-26T05:48:00;98841.94;;;23.88;69.44
9415;BME280;4746;35.664;139.738;2023-04-26T05:50:27;98826.22;;;23.88;69.12
9415;BME280;4746;35.664;139.738;2023-04-26T05:52:55;98832.72;;;23.82;69.14
9415;BME280;4746;35.664;139.738;2023-04-26T05:55:23;98829.88;;;23.73;69.57
9415;BME280;4746;35.664;139.738;2023-04-26T05:57:51;98792.50;;;23.71;69.83
9415;BME280;4746;35.664;139.738;2023-04-26T06:00:20;98812.19;;;23.77;69.78
9415;BME280;4746;35.664;139.738;2023-04-26T06:02:49;98792.31;;;23.74;69.66
9415;BME280;4746;35.664;139.738;2023-04-26T06:05:17;98798.47;;;23.73;70.21
9415;BME280;4746;35.664;139.738;2023-04-26T06:07:45;98790.63;;;23.73;70.06
9415;BME280;4746;35.664;139.738;2023-04-26T06:10:12;98801.72;;;23.77;69.95
9415;BME280;4746;35.664;139.738;2023-04-26T06:12:40;98797.03;;;23.81;70.22
9415;BME280;4746;35.664;139.738;2023-04-26T06:15:08;98786.75;;;23.91;69.91
9415;BME280;4746;35.664;139.738;2023-04-26T06:17:36;98794.09;;;23.98;69.62
9415;BME280;4746;35.664;139.738;2023-04-26T06:20:04;98783.53;;;24.00;69.69
9415;BME280;4746;35.664;139.738;2023-04-26T06:22:31;98810.63;;;23.99;69.63
9415;BME280;4746;35.664;139.738;2023-04-26T06:24:59;98791.25;;;24.01;69.87
9415;BME280;4746;35.664;139.738;2023-04-26T06:27:26;98814.50;;;24.06;69.34
9415;BME280;4746;35.664;139.738;2023-04-26T06:29:54;98802.97;;;24.08;69.89
9415;BME280;4746;35.664;139.738;2023-04-26T06:32:21;98797.50;;;24.11;69.73
9415;BME280;4746;35.664;139.738;2023-04-26T06:34:49;98809.47;;;24.15;69.99
9415;BME280;4746;35.664;139.738;2023-04-26T06:37:16;98818.16;;;24.16;70.10
9415;BME280;4746;35.664;139.738;2023-04-26T06:39:44;98821.69;;;24.15;70.22
9415;BME280;4746;35.664;139.738;2023-04-26T06:42:11;98845.25;;;24.15;70.31
9415;BME280;4746;35.664;139.738;2023-04-26T06:44:39;98852.59;;;24.10;70.57
9415;BME280;4746;35.664;139.738;2023-04-26T06:47:06;98855.22;;;24.10;70.29
9415;BME280;4746;35.664;139.738;2023-04-26T06:49:35;98814.06;;;24.12;70.53
9415;BME280;4746;35.664;139.738;2023-04-26T06:52:03;98840.66;;;24.18;70.66
9415;BME280;4746;35.664;139.738;2023-04-26T06:54:32;98846.31;;;24.25;70.91
9415;BME280;4746;35.664;139.738;2023-04-26T06:57:00;98844.22;;;24.30;70.79
9415;BME280;4746;35.664;139.738;2023-04-26T06:59:27;98852.34;;;24.38;70.32
9415;BME280;4746;35.664;139.738;2023-04-26T07:01:55;98847.84;;;24.40;70.27
9415;BME280;4746;35.664;139.738;2023-04-26T07:04:22;98866.19;;;24.40;70.66
9415;BME280;4746;35.664;139.738;2023-04-26T07:06:50;98868.91;;;24.38;70.30
9415;BME280;4746;35.664;139.738;2023-04-26T07:09:17;98874.97;;;24.39;70.61
9415;BME280;4746;35.664;139.738;2023-04-26T07:11:48;98860.94;;;24.40;70.71
9415;BME280;4746;35.664;139.738;2023-04-26T07:14:16;98867.34;;;24.36;70.39
9415;BME280;4746;35.664;139.738;2023-04-26T07:16:44;98871.84;;;24.34;70.62
9415;BME280;4746;35.664;139.738;2023-04-26T07:19:12;98874.91;;;24.28;70.94
9415;BME280;4746;35.664;139.738;2023-04-26T07:21:39;98871.34;;;24.29;71.53
9415;BME280;4746;35.664;139.738;2023-04-26T07:24:07;98883.16;;;23.97;68.33
9415;BME280;4746;35.664;139.738;2023-04-26T07:26:35;98887.97;;;23.39;67.35
9415;BME280;4746;35.664;139.738;2023-04-26T07:29:02;98891.47;;;22.86;65.99
9415;BME280;4746;35.664;139.738;2023-04-26T07:31:31;98905.06;;;22.37;66.17
9415;BME280;4746;35.664;139.738;2023-04-26T07:33:58;98885.56;;;22.00;66.09
9415;BME280;4746;35.664;139.738;2023-04-26T07:36:26;98904.69;;;21.71;66.12
9415;BME280;4746;35.664;139.738;2023-04-26T07:38:54;98914.81;;;21.47;66.06
9415;BME280;4746;35.664;139.738;2023-04-26T07:41:22;98909.91;;;21.27;66.32
9415;BME280;4746;35.664;139.738;2023-04-26T07:43:49;98895.13;;;21.12;66.15
9415;BME280;4746;35.664;139.738;2023-04-26T07:46:17;98917.66;;;20.97;66.11
9415;BME280;4746;35.664;139.738;2023-04-26T07:48:45;98906.50;;;20.80;66.08
9415;BME280;4746;35.664;139.738;2023-04-26T07:51:12;98894.28;;;20.65;66.38
9415;BME280;4746;35.664;139.738;2023-04-26T07:53:40;98899.22;;;20.54;67.06
9415;BME280;4746;35.664;139.738;2023-04-26T07:56:09;98873.53;;;20.48;66.60
9415;BME280;4746;35.664;139.738;2023-04-26T07:58:37;98886.69;;;20.45;66.81
9415;BME280;4746;35.664;139.738;2023-04-26T08:01:05;98878.25;;;20.42;66.85
9415;BME280;4746;35.664;139.738;2023-04-26T08:03:34;98867.16;;;20.38;66.43
9415;BME280;4746;35.664;139.738;2023-04-26T08:06:02;98894.31;;;20.33;66.82
9415;BME280;4746;35.664;139.738;2023-04-26T08:08:30;98886.69;;;20.30;66.85
9415;BME280;4746;35.664;139.738;2023-04-26T08:10:59;98896.56;;;20.23;67.02
9415;BME280;4746;35.664;139.738;2023-04-26T08:13:27;98903.38;;;20.26;66.98
9415;BME280;4746;35.664;139.738;2023-04-26T08:15:54;98904.38;;;20.23;66.91
9415;BME280;4746;35.664;139.738;2023-04-26T08:18:22;98917.47;;;20.22;66.50
9415;BME280;4746;35.664;139.738;2023-04-26T08:20:49;98918.28;;;20.23;66.76
9415;BME280;4746;35.664;139.738;2023-04-26T08:23:17;98919.97;;;20.23;66.77
9415;BME280;4746;35.664;139.738;2023-04-26T08:25:46;98912.94;;;20.25;66.64
9415;BME280;4746;35.664;139.738;2023-04-26T08:28:17;98919.66;;;20.29;66.61
9415;BME280;4746;35.664;139.738;2023-04-26T08:30:45;98904.06;;;20.29;66.37
9415;BME280;4746;35.664;139.738;2023-04-26T08:33:20;98915.03;;;20.34;66.22
9415;BME280;4746;35.664;139.738;2023-04-26T08:35:48;98920.34;;;20.33;66.06
9415;BME280;4746;35.664;139.738;2023-04-26T08:38:16;98919.19;;;20.38;66.09
9415;BME280;4746;35.664;139.738;2023-04-26T08:40:46;98918.00;;;20.44;65.35
9415;BME280;4746;35.664;139.738;2023-04-26T08:43:15;98901.38;;;20.46;65.26
9415;BME280;4746;35.664;139.738;2023-04-26T08:45:46;98908.13;;;20.50;64.79
9415;BME280;4746;35.664;139.738;2023-04-26T08:48:36;98907.81;;;20.56;64.70
9415;BME280;4746;35.664;139.738;2023-04-26T08:51:06;98910.56;;;20.53;64.64
9415;BME280;4746;35.664;139.738;2023-04-26T08:53:38;98906.13;;;20.55;64.61
9415;BME280;4746;35.664;139.738;2023-04-26T08:56:21;98921.56;;;20.58;64.14
9415;BME280;4746;35.664;139.738;2023-04-26T08:58:51;98921.56;;;20.58;63.99
9415;BME280;4746;35.664;139.738;2023-04-26T09:01:20;98919.72;;;20.60;63.65
9415;BME280;4746;35.664;139.738;2023-04-26T09:03:48;98911.81;;;20.62;63.71
9415;BME280;4746;35.664;139.738;2023-04-26T09:06:17;98914.34;;;20.63;63.56
9415;BME280;4746;35.664;139.738;2023-04-26T09:08:46;98916.13;;;20.63;63.44
9415;BME280;4746;35.664;139.738;2023-04-26T09:11:13;98920.31;;;20.65;63.39
9415;BME280;4746;35.664;139.738;2023-04-26T09:13:41;98930.41;;;20.71;63.03
9415;BME280;4746;35.664;139.738;2023-04-26T09:16:09;98933.91;;;20.70;62.82
9415;BME280;4746;35.664;139.738;2023-04-26T09:18:49;98942.34;;;20.75;62.34
9415;BME280;4746;35.664;139.738;2023-04-26T09:21:23;98950.16;;;20.75;62.54
9415;BME280;4746;35.664;139.738;2023-04-26T09:23:59;98945.47;;;20.82;62.15
9415;BME280;4746;35.664;139.738;2023-04-26T09:26:30;98962.94;;;20.80;62.11
9415;BME280;4746;35.664;139.738;2023-04-26T09:29:18;98977.41;;;20.85;61.46
9415;BME280;4746;35.664;139.738;2023-04-26T09:31:48;98965.31;;;20.84;61.52
9415;BME280;4746;35.664;139.738;2023-04-26T09:34:16;98968.63;;;20.86;61.24
9415;BME280;4746;35.664;139.738;2023-04-26T09:36:55;98974.28;;;20.94;60.93
9415;BME280;4746;35.664;139.738;2023-04-26T09:39:36;98966.66;;;20.91;60.97
9415;BME280;4746;35.664;139.738;2023-04-26T09:42:07;98964.19;;;20.88;60.59
9415;BME280;4746;35.664;139.738;2023-04-26T09:44:35;98992.69;;;20.91;60.88
9415;BME280;4746;35.664;139.738;2023-04-26T09:47:09;98957.91;;;20.92;60.49
9415;BME280;4746;35.664;139.738;2023-04-26T09:49:49;98975.06;;;20.96;60.35
9415;BME280;4746;35.664;139.738;2023-04-26T09:52:20;98974.47;;;20.91;60.08
9415;BME280;4746;35.664;139.738;2023-04-26T09:54:51;98973.38;;;20.95;60.20
9415;BME280;4746;35.664;139.738;2023-04-26T09:57:20;98978.41;;;20.98;59.89
9415;BME280;4746;35.664;139.738;2023-04-26T09:59:53;98977.31;;;21.02;59.89
9415;BME280;4746;35.664;139.738;2023-04-26T10:02:25;98982.69;;;20.99;58.80
9415;BME280;4746;35.664;139.738;2023-04-26T10:04:55;98987.16;;;20.97;59.42
9415;BME280;4746;35.664;139.738;2023-04-26T10:07:25;98977.31;;;21.02;58.97
9415;BME280;4746;35.664;139.738;2023-04-26T10:09:54;98988.47;;;21.04;59.00
9415;BME280;4746;35.664;139.738;2023-04-26T10:12:23;98988.47;;;21.04;58.94
9415;BME280;4746;35.664;139.738;2023-04-26T10:14:50;98990.16;;;21.05;58.32
9415;BME280;4746;35.664;139.738;2023-04-26T10:17:19;98994.66;;;21.03;58.31
9415;BME280;4746;35.664;139.738;2023-04-26T10:19:52;98987.75;;;21.02;58.36
9415;BME280;4746;35.664;139.738;2023-04-26T10:22:30;99001.25;;;21.08;57.78
9415;BME280;4746;35.664;139.738;2023-04-26T10:24:59;98999.84;;;21.03;57.74
9415;BME280;4746;35.664;139.738;2023-04-26T10:27:46;99002.13;;;21.09;57.36
9415;BME280;4746;35.664;139.738;2023-04-26T10:30:19;99003.97;;;21.07;57.52
9415;BME280;4746;35.664;139.738;2023-04-26T10:35:29;99016.06;;;21.08;56.72
9415;BME280;4746;35.664;139.738;2023-04-26T10:40:33;99012.59;;;21.07;56.33
9415;BME280;4746;35.664;139.738;2023-04-26T10:45:46;99042.28;;;21.05;55.71
9415;BME280;4746;35.664;139.738;2023-04-26T10:48:28;99026.50;;;21.08;55.25
9415;BME280;4746;35.664;139.738;2023-04-26T10:59:11;99042.28;;;21.05;54.54
9415;BME280;4746;35.664;139.738;2023-04-26T11:01:40;99039.06;;;21.00;54.01
9415;BME280;4746;35.664;139.738;2023-04-26T11:04:10;99040.75;;;21.01;53.50
9415;BME280;4746;35.664;139.738;2023-04-26T11:06:54;99047.66;;;21.02;52.78
9415;BME280;4746;35.664;139.738;2023-04-26T11:09:40;99059.75;;;21.03;52.10
9415;BME280;4746;35.664;139.738;2023-04-26T11:12:14;99063.44;;;20.99;52.17
9415;BME280;4746;35.664;139.738;2023-04-26T11:14:44;99066.22;;;20.96;51.41
9415;BME280;4746;35.664;139.738;2023-04-26T11:17:14;99055.13;;;20.93;50.28
9415;BME280;4746;35.664;139.738;2023-04-26T11:19:42;99088.97;;;20.93;50.04
9415;BME280;4746;35.664;139.738;2023-04-26T11:22:13;99092.50;;;20.92;49.55
9415;BME280;4746;35.664;139.738;2023-04-26T11:24:42;99101.91;;;20.94;49.52
9415;BME280;4746;35.664;139.738;2023-04-26T11:27:10;99096.69;;;20.94;48.92
9415;BME280;4746;35.664;139.738;2023-04-26T11:29:38;99105.44;;;20.93;48.50
9415;BME280;4746;35.664;139.738;2023-04-26T11:32:06;99096.88;;;20.91;48.01
9415;BME280;4746;35.664;139.738;2023-04-26T11:34:36;99053.34;;;20.93;47.73
9415;BME280;4746;35.664;139.738;2023-04-26T11:37:06;99094.41;;;20.88;47.54
9415;BME280;4746;35.664;139.738;2023-04-26T11:39:35;99121.38;;;20.87;47.25
9415;BME280;4746;35.664;139.738;2023-04-26T11:42:08;99115.09;;;20.91;46.80
9415;BME280;4746;35.664;139.738;2023-04-26T11:44:37;99108.28;;;20.89;46.38
9415;BME280;4746;35.664;139.738;2023-04-26T11:47:07;99144.50;;;20.93;46.10
9415;BME280;4746;35.664;139.738;2023-04-26T11:49:38;99129.63;;;20.95;46.10
9415;BME280;4746;35.664;139.738;2023-04-26T11:52:07;99142.06;;;20.90;45.96
9415;BME280;4746;35.664;139.738;2023-04-26T11:54:36;99160.28;;;20.90;45.27
9415;BME280;4746;35.664;139.738;2023-04-26T11:57:19;99139.38;;;20.92;45.35
9415;BME280;4746;35.664;139.738;2023-04-26T11:59:46;99145.06;;;20.83;45.22
9415;BME280;4746;35.664;139.738;2023-04-26T12:02:14;99153.94;;;20.79;45.41
9415;BME280;4746;35.664;139.738;2023-04-26T12:04:41;99157.13;;;20.84;44.95
9415;BME280;4746;35.664;139.738;2023-04-26T12:07:10;99147.03;;;20.78;44.50
9415;BME280;4746;35.664;139.738;2023-04-26T12:09:40;99166.91;;;20.80;44.55
9415;BME280;4746;35.664;139.738;2023-04-26T12:12:10;99160.13;;;20.76;44.73
9415;BME280;4746;35.664;139.738;2023-04-26T12:14:39;99194.91;;;20.75;44.38
9415;BME280;4746;35.664;139.738;2023-04-26T12:17:07;99165.47;;;20.73;43.70
9415;BME280;4746;35.664;139.738;2023-04-26T12:19:38;99159.41;;;20.74;43.52
9415;BME280;4746;35.664;139.738;2023-04-26T12:22:07;99162.88;;;20.73;43.29
9415;BME280;4746;35.664;139.738;2023-04-26T12:24:35;99192.44;;;20.72;43.06
9415;BME280;4746;35.664;139.738;2023-04-26T12:27:05;99210.66;;;20.72;42.90
9415;BME280;4746;35.664;139.738;2023-04-26T12:29:34;99180.31;;;20.71;42.35
9415;BME280;4746;35.664;139.738;2023-04-26T12:32:02;99212.78;;;20.64;42.06
9415;BME280;4746;35.664;139.738;2023-04-26T12:34:29;99202.53;;;20.61;42.08
9415;BME280;4746;35.664;139.738;2023-04-26T12:36:57;99195.16;;;20.52;41.63
9415;BME280;4746;35.664;139.738;2023-04-26T12:39:24;99220.44;;;20.50;41.40
9415;BME280;4746;35.664;139.738;2023-04-26T12:41:52;99235.19;;;20.50;41.00
9415;BME280;4746;35.664;139.738;2023-04-26T12:44:20;99235.50;;;20.44;41.46
9415;BME280;4746;35.664;139.738;2023-04-26T12:46:48;99230.22;;;20.45;41.10
9415;BME280;4746;35.664;139.738;2023-04-26T12:49:17;99216.44;;;20.43;40.28
9415;BME280;4746;35.664;139.738;2023-04-26T12:51:44;99214.97;;;20.38;40.49
9415;BME280;4746;35.664;139.738;2023-04-26T12:54:12;99225.66;;;20.32;40.08
9415;BME280;4746;35.664;139.738;2023-04-26T12:56:39;99229.19;;;20.31;39.96
9415;BME280;4746;35.664;139.738;2023-04-26T12:59:10;99218.84;;;20.29;39.77
9415;BME280;4746;35.664;139.738;2023-04-26T13:01:37;99258.97;;;20.25;39.82
9415;BME280;4746;35.664;139.738;2023-04-26T13:04:05;99252.06;;;20.24;39.46
9415;BME280;4746;35.664;139.738;2023-04-26T13:06:33;99260.03;;;20.22;38.92
9415;BME280;4746;35.664;139.738;2023-04-26T13:09:01;99267.84;;;20.22;38.98
9415;BME280;4746;35.664;139.738;2023-04-26T13:11:29;99268.88;;;20.18;39.11
9415;BME280;4746;35.664;139.738;2023-04-26T13:13:56;99200.91;;;20.07;38.96
9415;BME280;4746;35.664;139.738;2023-04-26T13:16:24;99285.75;;;20.09;38.88
9415;BME280;4746;35.664;139.738;2023-04-26T13:18:52;99279.84;;;20.06;38.82
9415;BME280;4746;35.664;139.738;2023-04-26T13:21:21;99267.06;;;20.01;38.68
9415;BME280;4746;35.664;139.738;2023-04-26T13:23:48;99278.41;;;19.99;38.55
9415;BME280;4746;35.664;139.738;2023-04-26T13:26:16;99293.44;;;19.92;38.88